< Typhoon 195528 1956 Season Typhoon 195602 >
Typhoon 195601 (SARAH)
General InformationTrack Information on Google Maps || Disaster Info.ResourceGoogle EarthGE AnimationAtom FeedGeoJSON
Detalied Best Track (Time Zone = UTC)
Year Month Day Hour Lat. Long. Pressure (hPa) Wind (kt) Class Image Chart
1956 3 23 06 2.4 150.3 998 0 9 -- Chart
1956 3 23 12 2.9 149.7 995 0 9 -- Chart
1956 3 23 18 3.3 148.8 992 0 9 -- Chart
1956 3 24 00 3.8 147.8 990 0 9 -- Chart
1956 3 24 06 4.2 146.7 985 0 9 -- Chart
1956 3 24 12 4.5 145.8 985 0 9 -- Chart
1956 3 24 18 4.8 144.9 985 0 9 -- Chart
1956 3 25 00 4.9 144.0 983 0 9 -- Chart
1956 3 25 06 4.9 143.7 983 0 9 -- Chart
1956 3 25 12 5.8 142.6 987 0 9 -- Chart
1956 3 25 18 5.5 142.5 992 0 9 -- Chart
1956 3 26 00 5.8 141.9 996 0 9 -- Chart
1956 3 26 06 6.1 141.3 996 0 9 -- Chart
1956 3 26 12 7.0 141.2 996 0 9 -- Chart
1956 3 26 18 7.6 140.7 996 0 9 -- Chart
1956 3 27 00 7.9 140.1 996 0 9 -- Chart
1956 3 27 06 8.7 139.5 990 0 9 -- Chart
1956 3 27 12 9.6 138.2 990 0 9 -- Chart
1956 3 27 18 10.0 137.6 990 0 9 -- Chart
1956 3 28 00 10.3 137.2 990 0 9 -- Chart
1956 3 28 06 11.0 136.0 990 0 9 -- Chart
1956 3 28 12 11.3 135.0 985 0 9 -- Chart
1956 3 28 18 11.6 134.2 980 0 9 -- Chart
1956 3 29 00 11.8 133.3 975 0 9 -- Chart
1956 3 29 06 12.1 132.5 975 0 9 -- Chart
1956 3 29 12 12.5 131.3 975 0 9 -- Chart
1956 3 29 18 13.0 130.0 975 0 9 -- Chart
1956 3 30 00 13.5 128.6 970 0 9 -- Chart
1956 3 30 06 14.1 127.2 970 0 9 -- Chart
1956 3 30 12 14.5 126.0 980 0 9 -- Chart
1956 3 30 18 14.8 125.2 980 0 9 -- Chart
1956 3 31 00 15.1 124.8 990 0 9 -- Chart
1956 3 31 06 15.3 124.7 990 0 9 -- Chart
1956 3 31 12 15.6 124.9 995 0 9 -- Chart
1956 3 31 18 15.7 124.8 995 0 9 -- Chart
1956 4 1 00 15.5 124.7 1000 0 9 -- Chart
1956 4 1 06 15.7 124.7 1000 0 9 -- Chart
1956 4 1 12 15.7 125.3 1000 0 9 -- Chart
1956 4 1 18 15.5 126.0 1000 0 9 -- Chart
1956 4 2 00 15.5 126.7 1000 0 9 -- Chart
1956 4 2 06 15.2 127.6 1000 0 9 -- Chart
1956 4 2 12 14.8 128.2 1002 0 9 -- Chart
1956 4 2 18 14.4 129.0 1002 0 9 -- Chart
1956 4 3 00 13.9 129.9 1004 0 9 -- Chart
1956 4 3 06 13.4 130.9 1004 0 9 -- Chart
1956 4 3 12 13.3 131.5 1006 0 2 -- Chart
1956 4 3 18 13.0 132.0 1006 0 2 -- Chart
Japan Meteorological Agency Best Track Data | Correction Date : 1989-06-01
< Typhoon 195528 1956 Season Typhoon 195602 >

Help